createdAt,value
2023-02-02T00:01:23.679Z,11.70
2023-02-02T00:06:30.245Z,11.70
2023-02-02T00:11:33.788Z,11.70
2023-02-02T00:16:39.438Z,11.60
2023-02-02T00:21:44.636Z,11.70
2023-02-02T00:26:49.894Z,11.60
2023-02-02T00:31:53.980Z,11.60
2023-02-02T00:36:58.866Z,11.70
2023-02-02T00:42:02.273Z,11.60
2023-02-02T00:47:06.196Z,11.70
2023-02-02T00:52:11.427Z,11.80
2023-02-02T00:57:15.263Z,11.60
2023-02-02T01:02:18.681Z,11.60
2023-02-02T01:07:23.650Z,11.60
2023-02-02T01:12:27.374Z,11.60
2023-02-02T01:17:30.887Z,11.70
2023-02-02T01:22:35.943Z,11.70
2023-02-02T01:27:39.522Z,11.60
2023-02-02T01:32:43.142Z,11.60
2023-02-02T01:37:47.905Z,11.70
2023-02-02T01:42:51.280Z,11.60
2023-02-02T01:47:56.448Z,11.60
2023-02-02T01:53:02.783Z,11.70
2023-02-02T01:58:09.377Z,11.70
2023-02-02T02:03:15.322Z,11.70
2023-02-02T02:08:22.124Z,11.60
2023-02-02T02:13:46.899Z,11.60
2023-02-02T02:18:57.051Z,11.70
2023-02-02T02:24:54.670Z,11.70
2023-02-02T02:30:35.059Z,11.70
2023-02-02T02:35:44.342Z,11.80
2023-02-02T02:40:51.026Z,11.70
2023-02-02T02:45:54.491Z,11.60
2023-02-02T02:51:08.711Z,11.70
2023-02-02T02:56:18.514Z,11.60
2023-02-02T03:01:23.430Z,11.60
2023-02-02T03:06:30.830Z,11.70
2023-02-02T03:11:36.123Z,11.70
2023-02-02T03:16:39.629Z,11.70
2023-02-02T03:21:44.398Z,11.70
2023-02-02T03:26:47.976Z,11.70
2023-02-02T03:31:51.728Z,11.70
2023-02-02T03:36:56.486Z,11.70
2023-02-02T03:41:59.874Z,11.70
2023-02-02T03:47:03.227Z,11.60
2023-02-02T03:52:08.134Z,11.70
2023-02-02T03:57:11.509Z,11.70
2023-02-02T04:02:14.886Z,11.70
2023-02-02T04:07:19.650Z,11.60
2023-02-02T04:12:22.990Z,11.60
2023-02-02T04:17:26.369Z,11.60
2023-02-02T04:22:31.114Z,11.60
2023-02-02T04:27:34.516Z,11.60
2023-02-02T04:32:37.863Z,11.60
2023-02-02T04:37:42.628Z,11.60
2023-02-02T04:42:46.032Z,11.60
2023-02-02T04:47:49.384Z,11.60
2023-02-02T04:52:54.152Z,11.50
2023-02-02T04:57:57.497Z,11.70
2023-02-02T05:03:01.798Z,11.60
2023-02-02T05:08:08.351Z,11.50
2023-02-02T05:13:11.719Z,11.70
2023-02-02T05:18:15.125Z,11.50
2023-02-02T05:23:19.965Z,11.50
2023-02-02T05:28:23.965Z,11.60
2023-02-02T05:33:27.297Z,11.60
2023-02-02T05:38:32.068Z,11.60
2023-02-02T05:43:35.430Z,11.60
2023-02-02T05:48:38.893Z,11.60
2023-02-02T05:53:45.090Z,11.50
2023-02-02T05:58:49.977Z,11.60
2023-02-02T06:03:53.534Z,11.60
2023-02-02T06:08:58.396Z,11.60
2023-02-02T06:14:01.780Z,11.60
2023-02-02T06:19:05.282Z,11.60
2023-02-02T06:24:10.356Z,11.50
2023-02-02T06:29:13.908Z,11.50
2023-02-02T06:34:17.292Z,11.60
2023-02-02T06:39:22.077Z,11.60
2023-02-02T06:44:25.548Z,11.60
2023-02-02T06:49:28.932Z,11.60
2023-02-02T06:54:33.716Z,11.60
2023-02-02T06:59:37.138Z,11.60
2023-02-02T07:04:40.567Z,11.60
2023-02-02T07:09:45.453Z,11.60
2023-02-02T07:14:48.793Z,11.60
2023-02-02T07:19:52.190Z,11.60
2023-02-02T07:24:56.987Z,11.60
2023-02-02T07:30:00.402Z,11.60
2023-02-02T07:35:03.758Z,11.60
2023-02-02T07:40:10.204Z,11.50
2023-02-02T07:45:24.587Z,11.60
2023-02-02T07:50:36.918Z,11.50
2023-02-02T07:55:41.728Z,11.60
2023-02-02T08:00:45.142Z,11.60
2023-02-02T08:05:48.662Z,11.50
2023-02-02T08:10:54.466Z,11.50
2023-02-02T08:15:58.904Z,11.50
2023-02-02T08:21:02.917Z,11.60
2023-02-02T08:26:13.380Z,11.50
2023-02-02T08:31:19.511Z,11.50
2023-02-02T08:36:24.282Z,11.50
2023-02-02T08:41:29.138Z,11.50
2023-02-02T08:46:32.514Z,11.50
2023-02-02T08:51:35.899Z,11.50
2023-02-02T08:56:40.691Z,11.50
2023-02-02T09:01:44.115Z,11.50
2023-02-02T09:06:48.827Z,11.60
2023-02-02T09:11:53.641Z,11.60
2023-02-02T09:16:57.064Z,11.60
2023-02-02T09:22:00.481Z,11.60
2023-02-02T09:27:05.316Z,11.60
2023-02-02T09:32:09.128Z,11.60
2023-02-02T09:37:12.597Z,11.60
2023-02-02T09:42:30.545Z,11.70
2023-02-02T09:47:45.217Z,11.70
2023-02-02T09:52:52.694Z,11.70
2023-02-02T09:58:00.959Z,11.80
2023-02-02T10:03:06.731Z,11.80
2023-02-02T10:08:11.921Z,11.90
2023-02-02T10:13:20.480Z,12.00
2023-02-02T10:18:31.594Z,11.90
2023-02-02T10:23:37.978Z,12.10
2023-02-02T10:28:50.886Z,11.90
2023-02-02T10:34:02.691Z,12.10
2023-02-02T10:39:16.086Z,11.90
2023-02-02T10:44:28.349Z,12.20
2023-02-02T10:49:35.503Z,12.10
2023-02-02T10:54:57.660Z,12.20
2023-02-02T11:00:09.826Z,12.20
2023-02-02T11:05:33.305Z,12.30
2023-02-02T11:10:36.753Z,12.20
2023-02-02T11:15:41.957Z,12.30
2023-02-02T11:20:46.816Z,12.20
2023-02-02T11:25:59.840Z,12.30
2023-02-02T11:31:04.915Z,12.40
2023-02-02T11:36:20.458Z,12.40
2023-02-02T11:41:24.018Z,12.30
2023-02-02T11:46:31.353Z,12.30
2023-02-02T11:51:34.839Z,12.50
2023-02-02T11:56:39.327Z,12.30
2023-02-02T12:01:44.257Z,12.50
2023-02-02T12:06:47.755Z,12.40
2023-02-02T12:11:59.352Z,12.40
2023-02-02T12:17:15.676Z,12.50
2023-02-02T12:22:31.759Z,12.50
2023-02-02T12:27:41.067Z,12.50
2023-02-02T12:32:57.471Z,12.50
2023-02-02T12:38:06.998Z,12.50
2023-02-02T12:43:20.044Z,12.60
2023-02-02T12:48:36.025Z,12.50
2023-02-02T12:54:33.571Z,12.50
2023-02-02T12:59:32.943Z,12.60
2023-02-02T13:04:54.694Z,12.60
2023-02-02T13:10:05.759Z,12.50
2023-02-02T13:15:10.825Z,12.50
2023-02-02T13:20:25.768Z,12.60
2023-02-02T13:25:32.181Z,12.60
2023-02-02T13:30:39.167Z,12.50
2023-02-02T13:35:49.394Z,12.60
2023-02-02T13:40:53.489Z,12.60
2023-02-02T13:46:18.229Z,12.60
2023-02-02T13:51:51.336Z,12.60
2023-02-02T13:56:59.547Z,12.60
2023-02-02T14:02:03.532Z,12.60
2023-02-02T14:07:10.751Z,12.60
2023-02-02T14:12:14.969Z,12.60
2023-02-02T14:17:48.196Z,12.60
2023-02-02T14:22:54.573Z,12.60
2023-02-02T14:27:59.436Z,12.60
2023-02-02T14:33:47.610Z,12.60
2023-02-02T14:38:58.003Z,12.60
2023-02-02T14:44:05.960Z,12.60
2023-02-02T14:49:21.719Z,12.50
2023-02-02T14:54:36.241Z,12.50
2023-02-02T14:59:40.999Z,12.60
2023-02-02T15:04:47.938Z,12.60
2023-02-02T15:09:56.712Z,12.50
2023-02-02T15:15:08.561Z,12.50
2023-02-02T15:20:18.038Z,12.60
2023-02-02T15:25:26.345Z,12.50
2023-02-02T15:30:33.644Z,12.50
2023-02-02T15:35:38.271Z,12.50
2023-02-02T15:40:43.296Z,12.40
2023-02-02T15:45:48.230Z,12.40
2023-02-02T15:50:55.772Z,12.40
2023-02-02T15:56:02.051Z,12.40
2023-02-02T16:01:07.396Z,12.40
2023-02-02T16:06:11.122Z,12.50
2023-02-02T16:11:17.754Z,12.50
2023-02-02T16:16:26.131Z,12.40
2023-02-02T16:21:30.027Z,12.40
2023-02-02T16:26:36.462Z,12.40
2023-02-02T16:31:40.081Z,12.40
2023-02-02T16:36:43.562Z,12.40
2023-02-02T16:41:49.475Z,12.40
2023-02-02T16:46:53.160Z,12.40
2023-02-02T16:52:10.633Z,12.40
2023-02-02T16:57:22.018Z,12.30
2023-02-02T17:02:30.067Z,12.50
2023-02-02T17:07:34.922Z,12.40
2023-02-02T17:12:39.743Z,12.40
2023-02-02T17:17:43.124Z,12.30
2023-02-02T17:22:49.135Z,12.40
2023-02-02T17:27:54.375Z,12.30
2023-02-02T17:32:57.908Z,12.30
2023-02-02T17:38:01.316Z,12.40
2023-02-02T17:43:06.383Z,12.30
2023-02-02T17:48:12.327Z,12.30
2023-02-02T17:53:17.432Z,12.40
2023-02-02T17:58:22.198Z,12.30
2023-02-02T18:03:27.571Z,12.30
2023-02-02T18:08:31.825Z,12.30
2023-02-02T18:13:36.643Z,12.30
2023-02-02T18:18:40.343Z,12.40
2023-02-02T18:23:43.727Z,12.30
2023-02-02T18:28:49.602Z,12.30
2023-02-02T18:33:53.923Z,12.30
2023-02-02T18:38:58.154Z,12.30
2023-02-02T18:44:02.933Z,12.30
2023-02-02T18:49:06.289Z,12.20
2023-02-02T18:54:11.008Z,12.20
2023-02-02T18:59:16.219Z,12.20
2023-02-02T19:04:19.617Z,12.20
2023-02-02T19:09:23.008Z,12.20
2023-02-02T19:14:31.254Z,12.20
2023-02-02T19:19:35.513Z,12.20
2023-02-02T19:24:40.193Z,12.20
2023-02-02T19:29:45.628Z,12.20
2023-02-02T19:34:49.427Z,12.10
2023-02-02T19:39:55.567Z,12.10
2023-02-02T19:45:00.611Z,12.10
2023-02-02T19:50:16.019Z,12.10
2023-02-02T19:55:24.059Z,12.10
2023-02-02T20:00:31.020Z,12.10
2023-02-02T20:05:35.822Z,12.20
2023-02-02T20:10:42.720Z,12.20
2023-02-02T20:15:48.008Z,12.20
2023-02-02T20:20:53.820Z,12.10
2023-02-02T20:25:57.983Z,12.20
2023-02-02T20:31:05.830Z,12.10
2023-02-02T20:36:33.377Z,12.20
2023-02-02T20:41:36.772Z,12.10
2023-02-02T20:46:41.882Z,12.20
2023-02-02T20:51:45.395Z,12.20
2023-02-02T20:56:49.134Z,12.20
2023-02-02T21:01:54.026Z,12.10
2023-02-02T21:06:59.514Z,12.00
2023-02-02T21:12:02.932Z,12.10
2023-02-02T21:17:15.266Z,12.20
2023-02-02T21:22:19.207Z,12.20
2023-02-02T21:27:22.623Z,12.10
2023-02-02T21:32:27.391Z,12.20
2023-02-02T21:37:30.769Z,12.30
2023-02-02T21:42:35.634Z,12.20
2023-02-02T21:47:46.482Z,12.20
2023-02-02T21:52:49.871Z,12.20
2023-02-02T21:57:53.367Z,12.10
2023-02-02T22:02:59.106Z,12.20
2023-02-02T22:08:05.343Z,12.10
2023-02-02T22:13:16.257Z,12.20
2023-02-02T22:18:23.121Z,12.20
2023-02-02T22:23:28.826Z,12.20
2023-02-02T22:28:37.139Z,12.10
2023-02-02T22:33:41.919Z,12.20
2023-02-02T22:38:45.296Z,12.20
2023-02-02T22:43:48.672Z,12.30
2023-02-02T22:48:53.428Z,12.30
2023-02-02T22:53:56.801Z,12.20
2023-02-02T22:59:01.572Z,12.00
2023-02-02T23:04:06.542Z,12.10
2023-02-02T23:09:09.976Z,12.10
2023-02-02T23:14:13.542Z,12.20
2023-02-02T23:19:18.362Z,12.00
2023-02-02T23:24:21.748Z,12.00
2023-02-02T23:29:25.245Z,12.20
2023-02-02T23:34:29.998Z,12.10
2023-02-02T23:39:33.400Z,12.10
2023-02-02T23:44:36.772Z,12.00
2023-02-02T23:49:41.611Z,12.20
2023-02-02T23:54:45.157Z,12.10
2023-02-02T23:59:48.522Z,12.20
